Grand Coulee, Washington
Current Conditions -  °F | °C
As of 11:53 PM on Tuesday 21 Oct 2014 (Local Time) from KOMK Reporting Station
Few Clouds Few Clouds  
Wind Chill: 45°   Ceiling: Unl
Heat Index: 49°   Visibility: 10mi
Dew Point: 40°   Wind: 9mph
Humidity: 71%   Direction: 230°SW
Pressure: 29.89"   Gusts: NA
Location:  47.94°N, 119°W
Report Text: KOMK 220653Z AUTO 23008KT 10SM FEW065 09/04 A2989 RMK AO2 SLP122 T00940044
Loading
Personal Weather Stations






























Interactive Weather Map
Tropical Storm Tracking
New forecast layout! Learn more

10-Day Weather Forecast

Advertisements
Track Severe Weather on mobile